Marathon, FL (33050)

9:02 AM EDT on August 05, 2015 (GMT -0400)
APRSWXNET | | Change Station
CLOSE
Current Station
Personal Weather Station
Location: Marathon, FL
Elevation: 15 ft
Nearby Weather Stations

Elev 15 ft 24.74 °N, 80.98 °W | Updated 29 minutes ago

Clear
Clear
87 °F
Feels Like 102 °F
N
6
Wind Variable Wind from East
Gusts 11.0 mph

Today
High -- | Low -- °F
--% Chance of Precip.
Yesterday
High -- | Low -- °F
Precip. -- in
6:53 AM 8:05 PM
Waning Gibbous, 67% visible
Pressure 30.08 in
Visibility 10.0 miles
Clouds Scattered Clouds 2200 ft
Scattered Clouds 25000 ft
Heat Index 102 °F
Dew Point 80 °F
Humidity 79%
Rainfall in
Snow Depth Not available.
UV 2 out of 12
Pollen 4.10 out of 12
Air Quality Not available.
Flu Activity Not available.
METAR KNQX 051253Z 12008KT 10SM SCT022 SCT250 30/24 A3008 RMK AO2 SLP184 T03000244 $

More Conditions Fewer Conditions

Pressure 30.08 in
Visibility 10.0 miles
Clouds Scattered Clouds 2200 ft
Scattered Clouds 25000 ft
Heat Index 102 °F
Dew Point 80 °F
Humidity 79%
Rainfall in
Snow Depth Not available.
UV 2 out of 12
Pollen 4.10 out of 12
Air Quality Not available.
Flu Activity Not available.
METAR KNQX 051253Z 12008KT 10SM SCT022 SCT250 30/24 A3008 RMK AO2 SLP184 T03000244 $

More Conditions Fewer Conditions

10-Day Weather Forecast

×

Almanac

Astronomy

Aug. 05, 2015 Rise Set
Actual Time
Civil Twilight
Nautical Twilight
Astronomical Twilight
Moon
Length of Visible Light
Length of Day
Tomorrow will be .
, % of the Moon is Illuminated

Today's Extremes

State Highs State Lows

Community

WunderPhotos

Upload Photos

1,844,177 photos uploaded!

WunderBlogs® & News

Nearby

Air Quality

  Air Quality AQ Index Pollutant
Not available.

Snow Depth

Station Depth Elevation

Earthquake Activity

City Distance Mag. Time & Date
Minimum magnitude displayed is 2.5.

Coastal Water Temperatures

Place Temperature

Stations

Nearby Weather Stations

Station Location Temp. Windchill Dew Point Humidity Wind Precip. Elev Updated Type